createdAt,value
2016-11-17T00:00:20.556Z,0
2016-11-17T00:01:20.532Z,0
2016-11-17T00:02:20.520Z,0
2016-11-17T00:03:20.824Z,0
2016-11-17T00:04:20.800Z,0
2016-11-17T00:05:20.796Z,0
2016-11-17T00:06:20.452Z,0
2016-11-17T00:07:20.465Z,0
2016-11-17T00:08:20.104Z,0
2016-11-17T00:09:20.402Z,0
2016-11-17T00:10:20.396Z,0
2016-11-17T00:11:20.682Z,0
2016-11-17T00:12:20.042Z,0
2016-11-17T00:13:20.654Z,0
2016-11-17T00:14:20.329Z,0
2016-11-17T00:15:20.623Z,0
2016-11-17T00:16:20.613Z,0
2016-11-17T00:17:20.277Z,0
2016-11-17T00:18:20.262Z,0
2016-11-17T00:19:20.255Z,0
2016-11-17T00:20:20.547Z,0
2016-11-17T00:21:20.528Z,0
2016-11-17T00:22:20.523Z,0
2016-11-17T00:23:20.497Z,0
2016-11-17T00:24:20.487Z,0
2016-11-17T00:25:20.162Z,0
2016-11-17T00:26:20.446Z,0
2016-11-17T00:27:20.447Z,0
2016-11-17T00:28:20.426Z,0
2016-11-17T00:29:20.081Z,0
2016-11-17T00:30:20.091Z,0
2016-11-17T00:31:20.060Z,0
2016-11-17T00:32:20.377Z,0
2016-11-17T00:33:20.023Z,0
2016-11-17T00:34:20.008Z,0
2016-11-17T00:35:19.675Z,0
2016-11-17T00:36:20.277Z,0
2016-11-17T00:37:20.270Z,0
2016-11-17T00:38:19.941Z,0
2016-11-17T00:39:19.924Z,0
2016-11-17T00:40:20.259Z,0
2016-11-17T00:41:19.898Z,0
2016-11-17T00:42:19.889Z,0
2016-11-17T00:43:20.186Z,0
2016-11-17T00:44:20.164Z,0
2016-11-17T00:45:19.834Z,0
2016-11-17T00:46:19.816Z,0
2016-11-17T00:47:20.121Z,0
2016-11-17T00:48:20.110Z,0
2016-11-17T00:49:19.448Z,0
2016-11-17T00:50:20.066Z,0
2016-11-17T00:51:20.046Z,0
2016-11-17T00:52:19.726Z,0
2016-11-17T00:53:20.015Z,0
2016-11-17T00:54:19.718Z,0
2016-11-17T00:55:19.983Z,0
2016-11-17T00:56:19.651Z,0
2016-11-17T00:57:19.642Z,0
2016-11-17T00:58:19.623Z,0
2016-11-17T00:59:19.914Z,0
2016-11-17T01:00:19.899Z,0
2016-11-17T01:01:19.575Z,0
2016-11-17T01:02:19.556Z,0
2016-11-17T01:03:19.570Z,0
2016-11-17T01:04:19.849Z,0
2016-11-17T01:05:19.510Z,0
2016-11-17T01:06:19.805Z,0
2016-11-17T01:07:19.480Z,0
2016-11-17T01:08:19.773Z,0
2016-11-17T01:09:19.443Z,0
2016-11-17T01:10:19.422Z,0
2016-11-17T01:11:19.443Z,0
2016-11-17T01:12:19.715Z,0
2016-11-17T01:13:19.699Z,0
2016-11-17T01:14:19.687Z,0
2016-11-17T01:15:19.030Z,0
2016-11-17T01:16:19.655Z,0
2016-11-17T01:17:19.624Z,0
2016-11-17T01:18:19.292Z,0
2016-11-17T01:19:19.279Z,0
2016-11-17T01:20:19.574Z,0
2016-11-17T01:21:19.249Z,0
2016-11-17T01:22:19.544Z,0
2016-11-17T01:23:19.534Z,0
2016-11-17T01:24:19.517Z,0
2016-11-17T01:25:19.498Z,0
2016-11-17T01:26:19.207Z,0
2016-11-17T01:27:19.475Z,0
2016-11-17T01:28:19.448Z,0
2016-11-17T01:29:19.125Z,0
2016-11-17T01:30:19.420Z,0
2016-11-17T01:31:19.095Z,0
2016-11-17T01:32:19.387Z,0
2016-11-17T01:33:19.378Z,0
2016-11-17T01:34:19.357Z,0
2016-11-17T01:35:19.334Z,0
2016-11-17T01:36:19.321Z,0
2016-11-17T01:37:18.985Z,0
2016-11-17T01:38:19.300Z,0
2016-11-17T01:39:18.643Z,0
2016-11-17T01:40:18.940Z,0
2016-11-17T01:41:19.237Z,0
2016-11-17T01:42:19.231Z,0
2016-11-17T01:43:19.204Z,0
2016-11-17T01:44:19.240Z,0
2016-11-17T01:45:18.559Z,0
2016-11-17T01:46:18.840Z,0
2016-11-17T01:47:19.148Z,0
2016-11-17T01:48:19.133Z,0
2016-11-17T01:49:18.794Z,0
2016-11-17T01:50:18.781Z,0
2016-11-17T01:51:19.072Z,0
2016-11-17T01:52:18.749Z,0
2016-11-17T01:53:18.727Z,0
2016-11-17T01:54:19.030Z,0
2016-11-17T01:55:19.027Z,0
2016-11-17T01:56:18.999Z,0
2016-11-17T01:57:18.714Z,0
2016-11-17T01:58:18.333Z,0
2016-11-17T01:59:18.636Z,0
2016-11-17T02:00:18.306Z,0
2016-11-17T02:01:18.645Z,0
2016-11-17T02:02:18.620Z,0
2016-11-17T02:03:18.894Z,0
2016-11-17T02:04:18.877Z,0
2016-11-17T02:05:18.226Z,0
2016-11-17T02:06:18.846Z,0
2016-11-17T02:07:18.818Z,0
2016-11-17T02:08:18.800Z,0
2016-11-17T02:09:18.787Z,0
2016-11-17T02:10:18.452Z,0
2016-11-17T02:11:18.757Z,0
2016-11-17T02:12:18.769Z,0
2016-11-17T02:13:18.401Z,0
2016-11-17T02:14:18.709Z,0
2016-11-17T02:15:18.695Z,0
2016-11-17T02:16:18.382Z,0
2016-11-17T02:17:18.661Z,0
2016-11-17T02:18:18.315Z,0
2016-11-17T02:19:18.617Z,0
2016-11-17T02:20:18.644Z,0
2016-11-17T02:21:18.596Z,0
2016-11-17T02:22:18.571Z,0
2016-11-17T02:23:18.562Z,0
2016-11-17T02:24:17.914Z,0
2016-11-17T02:25:18.519Z,0
2016-11-17T02:26:18.189Z,0
2016-11-17T02:27:18.494Z,0
2016-11-17T02:28:18.513Z,0
2016-11-17T02:29:18.143Z,0
2016-11-17T02:30:18.124Z,0
2016-11-17T02:31:18.426Z,0
2016-11-17T02:32:18.413Z,0
2016-11-17T02:33:18.080Z,0
2016-11-17T02:34:18.064Z,0
2016-11-17T02:35:18.054Z,0
2016-11-17T02:36:18.025Z,0
2016-11-17T02:37:18.330Z,0
2016-11-17T02:38:17.985Z,0
2016-11-17T02:39:18.028Z,0
2016-11-17T02:40:17.962Z,0
2016-11-17T02:41:18.277Z,0
2016-11-17T02:42:17.936Z,0
2016-11-17T02:43:18.236Z,0
2016-11-17T02:44:17.895Z,0
2016-11-17T02:45:18.194Z,0
2016-11-17T02:46:17.858Z,0
2016-11-17T02:47:18.167Z,0
2016-11-17T02:48:18.146Z,0
2016-11-17T02:49:17.508Z,0
2016-11-17T02:50:17.822Z,0
2016-11-17T02:51:17.792Z,0
2016-11-17T02:52:17.454Z,0
2016-11-17T02:53:17.760Z,0
2016-11-17T02:54:18.054Z,0
2016-11-17T02:55:18.036Z,0
2016-11-17T02:56:18.027Z,0
2016-11-17T02:57:17.998Z,0
2016-11-17T02:58:17.987Z,0
2016-11-17T02:59:17.972Z,0
2016-11-17T03:00:17.960Z,0
2016-11-17T03:01:17.931Z,0
2016-11-17T03:02:17.915Z,0
2016-11-17T03:03:17.272Z,0
2016-11-17T03:04:17.253Z,0
2016-11-17T03:05:17.875Z,0
2016-11-17T03:06:17.874Z,0
2016-11-17T03:07:17.842Z,0
2016-11-17T03:08:17.824Z,0
2016-11-17T03:09:17.522Z,0
2016-11-17T03:10:17.161Z,0
2016-11-17T03:11:17.814Z,0
2016-11-17T03:12:17.444Z,0
2016-11-17T03:13:17.105Z,0
2016-11-17T03:14:17.732Z,0
2016-11-17T03:15:17.397Z,0
2016-11-17T03:16:17.379Z,0
2016-11-17T03:17:17.673Z,0
2016-11-17T03:18:17.664Z,0
2016-11-17T03:19:17.643Z,0
2016-11-17T03:20:17.622Z,0
2016-11-17T03:21:17.598Z,0
2016-11-17T03:22:16.959Z,0
2016-11-17T03:23:16.950Z,0
2016-11-17T03:24:17.245Z,0
2016-11-17T03:25:17.230Z,0
2016-11-17T03:26:16.581Z,0
2016-11-17T03:27:17.548Z,0
2016-11-17T03:28:17.496Z,0
2016-11-17T03:29:17.479Z,0
2016-11-17T03:30:17.184Z,0
2016-11-17T03:31:17.458Z,0
2016-11-17T03:32:17.428Z,0
2016-11-17T03:33:17.415Z,0
2016-11-17T03:34:16.767Z,0
2016-11-17T03:35:17.074Z,0
2016-11-17T03:36:17.061Z,0
2016-11-17T03:37:17.344Z,0
2016-11-17T03:38:17.355Z,0
2016-11-17T03:39:17.317Z,0
2016-11-17T03:40:17.297Z,0
2016-11-17T03:41:17.294Z,0
2016-11-17T03:42:17.275Z,0
2016-11-17T03:43:16.939Z,0
2016-11-17T03:44:17.238Z,0
2016-11-17T03:45:16.897Z,0
2016-11-17T03:46:16.882Z,0
2016-11-17T03:47:17.187Z,0
2016-11-17T03:48:17.170Z,0
2016-11-17T03:49:17.147Z,0
2016-11-17T03:50:17.132Z,0
2016-11-17T03:51:17.135Z,0
2016-11-17T03:52:16.791Z,0
2016-11-17T03:53:17.074Z,0
2016-11-17T03:54:17.082Z,0
2016-11-17T03:55:17.086Z,0
2016-11-17T03:56:17.048Z,0
2016-11-17T03:57:17.025Z,0
2016-11-17T03:58:17.010Z,0
2016-11-17T03:59:17.001Z,0
2016-11-17T04:00:16.976Z,0
2016-11-17T04:01:16.957Z,0
2016-11-17T04:02:16.654Z,0
2016-11-17T04:03:16.922Z,0
2016-11-17T04:04:16.599Z,0
2016-11-17T04:05:16.898Z,0
2016-11-17T04:06:16.249Z,0
2016-11-17T04:07:16.862Z,0
2016-11-17T04:08:16.557Z,0
2016-11-17T04:09:16.834Z,0
2016-11-17T04:10:16.806Z,0
2016-11-17T04:11:16.803Z,0
2016-11-17T04:12:16.456Z,0
2016-11-17T04:13:16.765Z,0
2016-11-17T04:14:16.744Z,0
2016-11-17T04:15:16.741Z,0
2016-11-17T04:16:16.403Z,0
2016-11-17T04:17:16.700Z,0
2016-11-17T04:18:16.363Z,0
2016-11-17T04:19:16.668Z,0
2016-11-17T04:20:16.659Z,0
2016-11-17T04:21:16.640Z,0
2016-11-17T04:22:16.625Z,0
2016-11-17T04:23:16.602Z,0
2016-11-17T04:24:16.268Z,0
2016-11-17T04:25:16.565Z,0
2016-11-17T04:26:16.562Z,0
2016-11-17T04:27:16.533Z,0
2016-11-17T04:28:16.517Z,0
2016-11-17T04:29:16.505Z,0
2016-11-17T04:30:16.481Z,0
2016-11-17T04:31:16.154Z,0
2016-11-17T04:32:16.455Z,0
2016-11-17T04:33:15.840Z,0
2016-11-17T04:34:16.096Z,0
2016-11-17T04:35:16.396Z,0
2016-11-17T04:36:16.070Z,0
2016-11-17T04:37:16.361Z,0
2016-11-17T04:38:16.362Z,0
2016-11-17T04:39:16.021Z,0
2016-11-17T04:40:16.002Z,0
2016-11-17T04:41:15.983Z,0
2016-11-17T04:42:16.288Z,0
2016-11-17T04:43:15.956Z,0
2016-11-17T04:44:16.260Z,0
2016-11-17T04:45:16.238Z,0
2016-11-17T04:46:15.901Z,0
2016-11-17T04:47:15.571Z,0
2016-11-17T04:48:15.867Z,0
2016-11-17T04:49:15.854Z,0
2016-11-17T04:50:15.841Z,0
2016-11-17T04:51:16.130Z,0
2016-11-17T04:52:16.125Z,0
2016-11-17T04:53:15.788Z,0
2016-11-17T04:54:16.128Z,0
2016-11-17T04:55:16.106Z,0
2016-11-17T04:56:15.422Z,0
2016-11-17T04:57:16.035Z,0
2016-11-17T04:58:16.028Z,0
2016-11-17T04:59:16.001Z,0
2016-11-17T05:00:15.675Z,0
2016-11-17T05:01:15.976Z,0
2016-11-17T05:02:15.951Z,0
2016-11-17T05:03:15.936Z,0
2016-11-17T05:04:15.301Z,0
2016-11-17T05:05:15.914Z,0
2016-11-17T05:06:15.255Z,0
2016-11-17T05:07:15.559Z,0
2016-11-17T05:08:15.544Z,0
2016-11-17T05:09:15.831Z,0
2016-11-17T05:10:15.504Z,0
2016-11-17T05:11:15.805Z,0
2016-11-17T05:12:15.477Z,0
2016-11-17T05:13:15.776Z,0
2016-11-17T05:14:15.755Z,0
2016-11-17T05:15:15.107Z,0
2016-11-17T05:16:15.721Z,0
2016-11-17T05:17:15.394Z,0
2016-11-17T05:18:15.682Z,0
2016-11-17T05:19:15.353Z,0
2016-11-17T05:20:15.348Z,0
2016-11-17T05:21:15.641Z,0
2016-11-17T05:22:15.320Z,0
2016-11-17T05:23:15.292Z,0
2016-11-17T05:24:15.591Z,0
2016-11-17T05:25:15.564Z,0
2016-11-17T05:26:15.749Z,0
2016-11-17T05:27:15.253Z,0
2016-11-17T05:28:15.517Z,0
2016-11-17T05:29:15.543Z,0
2016-11-17T05:30:16.214Z,0
2016-11-17T05:31:15.470Z,0
2016-11-17T05:32:15.140Z,0
2016-11-17T05:33:15.445Z,0
2016-11-17T05:34:15.122Z,0
2016-11-17T05:35:15.410Z,0
2016-11-17T05:36:15.388Z,0
2016-11-17T05:37:15.062Z,0
2016-11-17T05:38:15.053Z,0
2016-11-17T05:39:15.348Z,0
2016-11-17T05:40:15.325Z,0
2016-11-17T05:41:14.997Z,0
2016-11-17T05:42:14.984Z,0
2016-11-17T05:43:14.969Z,0
2016-11-17T05:44:15.268Z,0
2016-11-17T05:45:15.255Z,0
2016-11-17T05:46:14.923Z,0
2016-11-17T05:47:15.208Z,0
2016-11-17T05:48:14.922Z,0
2016-11-17T05:49:15.216Z,0
2016-11-17T05:50:15.163Z,0
2016-11-17T05:51:14.840Z,0
2016-11-17T05:52:15.143Z,0
2016-11-17T05:53:14.814Z,0
2016-11-17T05:54:15.111Z,0
2016-11-17T05:55:15.080Z,0
2016-11-17T05:56:14.750Z,0
2016-11-17T05:57:14.743Z,0
2016-11-17T05:58:14.722Z,0
2016-11-17T05:59:15.018Z,0
2016-11-17T06:00:15.009Z,0
2016-11-17T06:01:14.672Z,0
2016-11-17T06:02:14.341Z,0
2016-11-17T06:03:14.952Z,0
2016-11-17T06:04:14.947Z,0
2016-11-17T06:05:14.931Z,0
2016-11-17T06:06:14.912Z,0
2016-11-17T06:07:14.585Z,0
2016-11-17T06:08:14.568Z,0
2016-11-17T06:09:14.863Z,0
2016-11-17T06:10:14.222Z,0
2016-11-17T06:11:14.822Z,0
2016-11-17T06:12:14.818Z,0
2016-11-17T06:13:14.792Z,0
2016-11-17T06:14:14.465Z,0
2016-11-17T06:15:14.762Z,0
2016-11-17T06:16:14.754Z,0
2016-11-17T06:17:14.097Z,0
2016-11-17T06:18:14.407Z,0
2016-11-17T06:19:14.386Z,0
2016-11-17T06:20:14.376Z,0
2016-11-17T06:21:14.673Z,0
2016-11-17T06:22:14.655Z,0
2016-11-17T06:23:14.630Z,0
2016-11-17T06:24:13.987Z,0
2016-11-17T06:25:13.972Z,0
2016-11-17T06:26:14.273Z,0
2016-11-17T06:27:14.263Z,0
2016-11-17T06:28:14.554Z,0
2016-11-17T06:29:14.543Z,0
2016-11-17T06:30:14.205Z,0
2016-11-17T06:31:14.515Z,0
2016-11-17T06:32:14.177Z,0
2016-11-17T06:33:14.472Z,0
2016-11-17T06:34:14.455Z,0
2016-11-17T06:35:14.449Z,0
2016-11-17T06:36:14.440Z,0
2016-11-17T06:37:14.410Z,0
2016-11-17T06:38:14.080Z,0
2016-11-17T06:39:13.751Z,0
2016-11-17T06:40:14.364Z,0
2016-11-17T06:41:14.343Z,0
2016-11-17T06:42:13.705Z,0
2016-11-17T06:43:14.331Z,0
2016-11-17T06:44:14.303Z,0
2016-11-17T06:45:14.278Z,0
2016-11-17T06:46:14.291Z,0
2016-11-17T06:47:14.253Z,0
2016-11-17T06:48:13.922Z,0
2016-11-17T06:49:13.897Z,0
2016-11-17T06:50:14.204Z,0
2016-11-17T06:51:13.869Z,0
2016-11-17T06:52:14.178Z,0
2016-11-17T06:53:13.835Z,0
2016-11-17T06:54:13.505Z,0
2016-11-17T06:55:14.117Z,0
2016-11-17T06:56:14.108Z,0
2016-11-17T06:57:14.087Z,0
2016-11-17T06:58:14.074Z,0
2016-11-17T06:59:14.057Z,0
2016-11-17T07:00:13.721Z,0
2016-11-17T07:01:13.710Z,0
2016-11-17T07:02:13.724Z,0
2016-11-17T07:03:13.989Z,0
2016-11-17T07:04:13.986Z,0
2016-11-17T07:05:13.644Z,0
2016-11-17T07:06:13.629Z,0
2016-11-17T07:07:13.926Z,0
2016-11-17T07:08:13.284Z,0
2016-11-17T07:09:13.721Z,0
2016-11-17T07:10:13.568Z,0
2016-11-17T07:11:13.875Z,0
2016-11-17T07:12:13.541Z,0
2016-11-17T07:13:13.862Z,0
2016-11-17T07:14:13.823Z,0
2016-11-17T07:15:13.806Z,0
2016-11-17T07:16:13.787Z,0
2016-11-17T07:17:13.771Z,0
2016-11-17T07:18:13.794Z,0
2016-11-17T07:19:13.730Z,0
2016-11-17T07:20:13.735Z,0
2016-11-17T07:21:13.396Z,0
2016-11-17T07:22:13.376Z,0
2016-11-17T07:23:13.358Z,0
2016-11-17T07:24:13.340Z,0
2016-11-17T07:25:13.637Z,0
2016-11-17T07:26:13.306Z,0
2016-11-17T07:27:13.621Z,0
2016-11-17T07:28:13.276Z,0
2016-11-17T07:29:13.581Z,0
2016-11-17T07:30:13.238Z,0
2016-11-17T07:31:13.544Z,0
2016-11-17T07:32:13.226Z,0
2016-11-17T07:33:13.194Z,0
2016-11-17T07:34:13.184Z,0
2016-11-17T07:35:13.171Z,4
2016-11-17T07:36:13.153Z,4
2016-11-17T07:37:13.458Z,0
2016-11-17T07:38:13.121Z,4
2016-11-17T07:39:12.828Z,4
2016-11-17T07:40:13.092Z,4
2016-11-17T07:41:13.382Z,8
2016-11-17T07:42:12.736Z,4
2016-11-17T07:43:13.046Z,8
2016-11-17T07:44:13.033Z,8
2016-11-17T07:45:13.323Z,12
2016-11-17T07:46:13.310Z,12
2016-11-17T07:47:12.970Z,12
2016-11-17T07:48:13.281Z,16
2016-11-17T07:49:13.274Z,16
2016-11-17T07:50:13.249Z,20
2016-11-17T07:51:13.235Z,20
2016-11-17T07:52:13.217Z,20
2016-11-17T07:53:13.203Z,20
2016-11-17T07:54:13.170Z,20
2016-11-17T07:55:12.844Z,20
2016-11-17T07:56:12.837Z,20
2016-11-17T07:57:13.138Z,20
2016-11-17T07:58:13.116Z,16
2016-11-17T07:59:12.796Z,20
2016-11-17T08:00:12.806Z,16
2016-11-17T08:01:13.072Z,16
2016-11-17T08:02:12.771Z,16
2016-11-17T08:03:12.723Z,20
2016-11-17T08:04:12.705Z,20
2016-11-17T08:05:13.004Z,20
2016-11-17T08:06:12.711Z,20
2016-11-17T08:07:12.660Z,20
2016-11-17T08:08:12.643Z,16
2016-11-17T08:09:12.625Z,20
2016-11-17T08:10:12.614Z,20
2016-11-17T08:11:12.591Z,20
2016-11-17T08:12:12.573Z,20
2016-11-17T08:13:12.883Z,20
2016-11-17T08:14:12.873Z,20
2016-11-17T08:15:12.852Z,20
2016-11-17T08:16:12.197Z,20
2016-11-17T08:17:12.188Z,20
2016-11-17T08:18:12.799Z,20
2016-11-17T08:19:12.463Z,20
2016-11-17T08:20:11.814Z,20
2016-11-17T08:21:12.751Z,20
2016-11-17T08:22:12.747Z,20
2016-11-17T08:23:12.085Z,20
2016-11-17T08:24:12.569Z,24
2016-11-17T08:25:12.686Z,24
2016-11-17T08:26:12.674Z,24
2016-11-17T08:27:12.659Z,24
2016-11-17T08:28:12.532Z,24
2016-11-17T08:29:12.311Z,24
2016-11-17T08:30:12.308Z,24
2016-11-17T08:31:12.599Z,24
2016-11-17T08:32:12.575Z,24
2016-11-17T08:33:12.564Z,24
2016-11-17T08:34:12.539Z,24
2016-11-17T08:35:12.528Z,24
2016-11-17T08:36:12.206Z,28
2016-11-17T08:37:12.181Z,24
2016-11-17T08:38:12.472Z,24
2016-11-17T08:39:12.147Z,24
2016-11-17T08:40:12.135Z,40
2016-11-17T08:41:12.129Z,40
2016-11-17T08:42:12.417Z,40
2016-11-17T08:43:12.416Z,40
2016-11-17T08:44:12.390Z,40
2016-11-17T08:45:12.377Z,40
2016-11-17T08:46:12.037Z,40
2016-11-17T08:47:12.340Z,44
2016-11-17T08:48:12.339Z,44
2016-11-17T08:49:12.303Z,44
2016-11-17T08:50:12.015Z,48
2016-11-17T08:51:12.275Z,44
2016-11-17T08:52:11.647Z,40
2016-11-17T08:53:11.976Z,44
2016-11-17T08:54:12.281Z,44
2016-11-17T08:55:11.886Z,44
2016-11-17T08:56:12.190Z,44
2016-11-17T08:57:12.186Z,44
2016-11-17T08:58:11.846Z,44
2016-11-17T08:59:11.832Z,44
2016-11-17T09:00:12.129Z,44
2016-11-17T09:01:11.814Z,44
2016-11-17T09:02:11.469Z,44
2016-11-17T09:03:11.460Z,44
2016-11-17T09:04:11.758Z,44
2016-11-17T09:05:12.057Z,48
2016-11-17T09:06:11.403Z,44
2016-11-17T09:07:12.030Z,48
2016-11-17T09:08:11.687Z,44
2016-11-17T09:09:11.359Z,44
2016-11-17T09:10:11.972Z,48
2016-11-17T09:11:11.642Z,48
2016-11-17T09:12:11.957Z,48
2016-11-17T09:13:11.930Z,44
2016-11-17T09:14:11.921Z,48
2016-11-17T09:15:11.905Z,52
2016-11-17T09:16:11.558Z,48
2016-11-17T09:17:11.861Z,44
2016-11-17T09:18:11.851Z,48
2016-11-17T09:19:11.202Z,44
2016-11-17T09:20:11.819Z,44
2016-11-17T09:21:11.805Z,48
2016-11-17T09:22:11.466Z,44
2016-11-17T09:23:11.764Z,44
2016-11-17T09:24:11.748Z,48
2016-11-17T09:25:11.109Z,48
2016-11-17T09:26:11.722Z,48
2016-11-17T09:27:11.708Z,44
2016-11-17T09:28:11.691Z,44
2016-11-17T09:29:11.480Z,44
2016-11-17T09:30:11.671Z,48
2016-11-17T09:31:11.324Z,44
2016-11-17T09:32:11.309Z,44
2016-11-17T09:33:11.604Z,40
2016-11-17T09:34:11.584Z,40
2016-11-17T09:35:10.627Z,44
2016-11-17T09:36:11.558Z,40
2016-11-17T09:37:11.543Z,44
2016-11-17T09:38:11.215Z,44
2016-11-17T09:39:11.524Z,40
2016-11-17T09:40:11.489Z,44
2016-11-17T09:41:11.508Z,44
2016-11-17T09:42:11.140Z,44
2016-11-17T09:43:11.131Z,44
2016-11-17T09:44:11.426Z,44
2016-11-17T09:45:11.101Z,40
2016-11-17T09:46:10.774Z,40
2016-11-17T09:47:11.390Z,48
2016-11-17T09:48:11.055Z,44
2016-11-17T09:49:11.072Z,44
2016-11-17T09:50:11.343Z,44
2016-11-17T09:51:11.011Z,44
2016-11-17T09:52:11.308Z,48
2016-11-17T09:53:10.972Z,48
2016-11-17T09:54:11.283Z,48
2016-11-17T09:55:10.941Z,52
2016-11-17T09:56:10.936Z,44
2016-11-17T09:57:10.918Z,48
2016-11-17T09:58:11.238Z,48
2016-11-17T09:59:11.198Z,48
2016-11-17T10:00:10.867Z,52
2016-11-17T10:01:10.848Z,48
2016-11-17T10:02:10.834Z,52
2016-11-17T10:03:11.132Z,48
2016-11-17T10:04:11.116Z,48
2016-11-17T10:05:10.785Z,48
2016-11-17T10:06:10.458Z,48
2016-11-17T10:07:11.069Z,52
2016-11-17T10:08:10.723Z,48
2016-11-17T10:09:10.723Z,52
2016-11-17T10:10:11.018Z,56
2016-11-17T10:11:11.043Z,52
2016-11-17T10:12:10.684Z,52
2016-11-17T10:13:10.982Z,52
2016-11-17T10:14:10.967Z,52
2016-11-17T10:15:10.625Z,52
2016-11-17T10:16:11.285Z,16
2016-11-17T10:17:10.597Z,20
2016-11-17T10:18:10.900Z,16
2016-11-17T10:19:10.571Z,16
2016-11-17T10:20:10.864Z,16
2016-11-17T10:21:10.859Z,12
2016-11-17T10:22:10.523Z,16
2016-11-17T10:23:10.821Z,12
2016-11-17T10:24:10.815Z,12
2016-11-17T10:25:10.778Z,16
2016-11-17T10:26:10.764Z,20
2016-11-17T10:27:10.757Z,24
2016-11-17T10:28:10.733Z,20
2016-11-17T10:29:10.725Z,16
2016-11-17T10:30:10.708Z,20
2016-11-17T10:31:10.371Z,28
2016-11-17T10:32:09.728Z,28
2016-11-17T10:33:10.669Z,20
2016-11-17T10:34:10.648Z,16
2016-11-17T10:35:10.311Z,16
2016-11-17T10:36:10.301Z,28
2016-11-17T10:37:10.621Z,28
2016-11-17T10:38:10.262Z,20
2016-11-17T10:39:10.555Z,16
2016-11-17T10:40:10.566Z,16
2016-11-17T10:41:10.540Z,8
2016-11-17T10:42:10.514Z,12
2016-11-17T10:43:10.202Z,12
2016-11-17T10:44:10.497Z,12
2016-11-17T10:45:10.469Z,12
2016-11-17T10:46:10.143Z,20
2016-11-17T10:47:10.440Z,24
2016-11-17T10:48:10.433Z,16
2016-11-17T10:49:10.416Z,12
2016-11-17T10:50:10.078Z,16
2016-11-17T10:51:10.073Z,16
2016-11-17T10:52:10.045Z,64
2016-11-17T10:53:10.351Z,48
2016-11-17T10:54:10.011Z,60
2016-11-17T10:55:10.006Z,60
2016-11-17T10:56:10.297Z,64
2016-11-17T10:57:10.292Z,64
2016-11-17T10:58:09.951Z,60
2016-11-17T10:59:10.254Z,24
2016-11-17T11:00:09.603Z,16
2016-11-17T11:01:10.217Z,16
2016-11-17T11:02:09.925Z,20
2016-11-17T11:03:09.915Z,12
2016-11-17T11:04:09.221Z,12
2016-11-17T11:05:09.843Z,52
2016-11-17T11:06:10.182Z,60
2016-11-17T11:07:09.502Z,52
2016-11-17T11:08:09.795Z,60
2016-11-17T11:09:09.783Z,56
2016-11-17T11:10:10.096Z,64
2016-11-17T11:11:10.069Z,56
2016-11-17T11:12:09.734Z,48
2016-11-17T11:13:09.749Z,32
2016-11-17T11:14:09.702Z,60
2016-11-17T11:15:09.999Z,60
2016-11-17T11:16:09.985Z,68
2016-11-17T11:17:09.662Z,56
2016-11-17T11:18:09.955Z,60
2016-11-17T11:19:09.948Z,64
2016-11-17T11:20:09.925Z,64
2016-11-17T11:21:09.912Z,40
2016-11-17T11:22:09.572Z,52
2016-11-17T11:23:09.871Z,28
2016-11-17T11:24:09.229Z,56
2016-11-17T11:25:09.846Z,44
2016-11-17T11:26:09.834Z,48
2016-11-17T11:27:09.817Z,40
2016-11-17T11:28:09.800Z,52
2016-11-17T11:29:09.467Z,56
2016-11-17T11:30:09.765Z,56
2016-11-17T11:31:09.740Z,52
2016-11-17T11:32:09.738Z,52
2016-11-17T11:33:09.406Z,48
2016-11-17T11:34:09.759Z,24
2016-11-17T11:35:09.685Z,28
2016-11-17T11:36:09.369Z,48
2016-11-17T11:37:09.341Z,64
2016-11-17T11:38:09.642Z,56
2016-11-17T11:39:09.671Z,64
2016-11-17T11:40:09.639Z,44
2016-11-17T11:41:09.599Z,44
2016-11-17T11:42:09.260Z,40
2016-11-17T11:43:09.552Z,36
2016-11-17T11:44:09.555Z,44
2016-11-17T11:45:09.527Z,52
2016-11-17T11:46:09.201Z,52
2016-11-17T11:47:09.201Z,44
2016-11-17T11:48:09.481Z,44
2016-11-17T11:49:09.148Z,40
2016-11-17T11:50:09.144Z,48
2016-11-17T11:51:09.435Z,28
2016-11-17T11:52:09.424Z,28
2016-11-17T11:53:09.407Z,32
2016-11-17T11:54:09.079Z,32
2016-11-17T11:55:09.378Z,48
2016-11-17T11:56:09.359Z,48
2016-11-17T11:57:09.348Z,56
2016-11-17T11:58:09.016Z,36
2016-11-17T11:59:09.310Z,32
2016-11-17T12:00:09.014Z,28
2016-11-17T12:01:08.964Z,40
2016-11-17T12:02:09.262Z,40
2016-11-17T12:03:09.253Z,36
2016-11-17T12:04:09.234Z,24
2016-11-17T12:05:09.235Z,24
2016-11-17T12:06:09.203Z,20
2016-11-17T12:07:09.192Z,20
2016-11-17T12:08:09.169Z,12
2016-11-17T12:09:09.159Z,12
2016-11-17T12:10:08.823Z,8
2016-11-17T12:11:08.808Z,12
2016-11-17T12:12:08.804Z,12
2016-11-17T12:13:08.469Z,16
2016-11-17T12:14:08.790Z,20
2016-11-17T12:15:08.755Z,20
2016-11-17T12:16:09.048Z,16
2016-11-17T12:17:09.031Z,16
2016-11-17T12:18:09.017Z,8
2016-11-17T12:19:09.005Z,8
2016-11-17T12:20:08.670Z,12
2016-11-17T12:21:08.976Z,16
2016-11-17T12:22:08.653Z,20
2016-11-17T12:23:08.938Z,20
2016-11-17T12:24:08.923Z,28
2016-11-17T12:25:08.591Z,20
2016-11-17T12:26:08.895Z,24
2016-11-17T12:27:08.879Z,32
2016-11-17T12:28:08.559Z,28
2016-11-17T12:29:08.847Z,24
2016-11-17T12:30:08.828Z,20
2016-11-17T12:31:08.802Z,24
2016-11-17T12:32:08.793Z,20
2016-11-17T12:33:08.148Z,24
2016-11-17T12:34:08.453Z,24
2016-11-17T12:35:08.751Z,20
2016-11-17T12:36:08.746Z,24
2016-11-17T12:37:08.715Z,20
2016-11-17T12:38:08.700Z,32
2016-11-17T12:39:08.379Z,20
2016-11-17T12:40:08.679Z,24
2016-11-17T12:41:08.662Z,24
2016-11-17T12:42:08.633Z,24
2016-11-17T12:43:08.634Z,16
2016-11-17T12:44:08.609Z,12
2016-11-17T12:45:08.288Z,12
2016-11-17T12:46:07.940Z,8
2016-11-17T12:47:08.569Z,8
2016-11-17T12:48:08.237Z,8
2016-11-17T12:49:08.217Z,8
2016-11-17T12:50:08.514Z,8
2016-11-17T12:51:08.505Z,8
2016-11-17T12:52:08.174Z,8
2016-11-17T12:53:08.463Z,8
2016-11-17T12:54:08.459Z,8
2016-11-17T12:55:08.438Z,4
2016-11-17T12:56:08.115Z,0
2016-11-17T12:57:08.414Z,4
2016-11-17T12:58:08.076Z,4
2016-11-17T12:59:08.122Z,4
2016-11-17T13:00:07.740Z,4
2016-11-17T13:01:07.401Z,4
2016-11-17T13:02:08.362Z,4
2016-11-17T13:03:08.325Z,4
2016-11-17T13:04:08.313Z,4
2016-11-17T13:05:07.649Z,8
2016-11-17T13:06:07.952Z,4
2016-11-17T13:07:08.259Z,4
2016-11-17T13:08:07.610Z,4
2016-11-17T13:09:08.273Z,4
2016-11-17T13:10:08.212Z,0
2016-11-17T13:11:07.553Z,4
2016-11-17T13:12:08.168Z,4
2016-11-17T13:13:08.202Z,4
2016-11-17T13:14:07.874Z,4
2016-11-17T13:15:08.130Z,0
2016-11-17T13:16:07.803Z,0
2016-11-17T13:17:07.810Z,0
2016-11-17T13:18:08.077Z,0
2016-11-17T13:19:07.749Z,4
2016-11-17T13:20:08.052Z,4
2016-11-17T13:21:08.029Z,4
2016-11-17T13:22:08.052Z,0
2016-11-17T13:23:07.683Z,0
2016-11-17T13:24:07.984Z,0
2016-11-17T13:25:07.656Z,4
2016-11-17T13:26:07.945Z,0
2016-11-17T13:27:07.628Z,0
2016-11-17T13:28:07.606Z,0
2016-11-17T13:29:07.939Z,0
2016-11-17T13:30:07.578Z,4
2016-11-17T13:31:07.879Z,4
2016-11-17T13:32:07.857Z,4
2016-11-17T13:33:07.528Z,4
2016-11-17T13:34:07.509Z,4
2016-11-17T13:35:07.802Z,4
2016-11-17T13:36:07.795Z,4
2016-11-17T13:37:07.464Z,4
2016-11-17T13:38:07.761Z,4
2016-11-17T13:39:07.775Z,4
2016-11-17T13:40:07.428Z,0
2016-11-17T13:41:07.726Z,0
2016-11-17T13:42:07.704Z,4
2016-11-17T13:43:07.683Z,0
2016-11-17T13:44:07.671Z,4
2016-11-17T13:45:07.024Z,4
2016-11-17T13:46:07.641Z,4
2016-11-17T13:47:07.323Z,0
2016-11-17T13:48:07.610Z,0
2016-11-17T13:49:06.957Z,4
2016-11-17T13:50:07.274Z,4
2016-11-17T13:51:06.933Z,8
2016-11-17T13:52:07.231Z,4
2016-11-17T13:53:06.900Z,4
2016-11-17T13:54:07.515Z,0
2016-11-17T13:55:07.496Z,0
2016-11-17T13:56:06.861Z,4
2016-11-17T13:57:07.150Z,0
2016-11-17T13:58:07.134Z,4
2016-11-17T13:59:07.117Z,4
2016-11-17T14:00:06.476Z,8
2016-11-17T14:01:07.402Z,4
2016-11-17T14:02:07.408Z,4
2016-11-17T14:03:07.373Z,4
2016-11-17T14:04:07.041Z,4
2016-11-17T14:05:06.704Z,4
2016-11-17T14:06:07.003Z,0
2016-11-17T14:07:07.312Z,4
2016-11-17T14:08:07.294Z,0
2016-11-17T14:09:06.961Z,4
2016-11-17T14:10:07.256Z,4
2016-11-17T14:11:07.249Z,0
2016-11-17T14:12:07.232Z,0
2016-11-17T14:13:07.225Z,0
2016-11-17T14:14:06.877Z,4
2016-11-17T14:15:07.194Z,4
2016-11-17T14:16:07.163Z,4
2016-11-17T14:17:07.156Z,4
2016-11-17T14:18:06.820Z,4
2016-11-17T14:19:07.123Z,4
2016-11-17T14:20:06.782Z,4
2016-11-17T14:21:07.096Z,4
2016-11-17T14:22:07.065Z,0
2016-11-17T14:23:06.732Z,0
2016-11-17T14:24:06.720Z,4
2016-11-17T14:25:07.020Z,4
2016-11-17T14:26:07.014Z,0
2016-11-17T14:27:06.985Z,4
2016-11-17T14:28:06.975Z,0
2016-11-17T14:29:06.963Z,0
2016-11-17T14:30:06.629Z,0
2016-11-17T14:31:06.616Z,0
2016-11-17T14:32:06.604Z,0
2016-11-17T14:33:06.267Z,0
2016-11-17T14:34:06.566Z,0
2016-11-17T14:35:06.869Z,0
2016-11-17T14:36:06.532Z,0